Time;durP1;ratioP1;P1;durP2;ratioP2;P2;SDS_P1;SDS_P2;PMS_P1;PMS_P2;Temp;Humidity;BMP_temperature;BMP_pressure;BME280_temperature;BME280_humidity;BME280_pressure;Samples;Min_cycle;Max_cycle;Signal;HPM_P1;HPM_P2
2022/01/05 00:01:12;;;;;;;10.68;1.50;;;;;;;;;;5017052;28;93501;-71
2022/01/05 00:03:39;;;;;;;8.93;1.85;;;;;;;;;;5017214;28;92917;-71
2022/01/05 00:06:05;;;;;;;10.05;2.42;;;;;;;;;;5017051;28;92270;-71
2022/01/05 00:08:31;;;;;;;8.13;1.35;;;;;;;;;;5019702;28;93572;-71
2022/01/05 00:10:58;;;;;;;14.30;2.20;;;;;;;;;;5015259;28;94635;-71
2022/01/05 00:13:24;;;;;;;11.30;1.75;;;;;;;;;;5016208;28;95848;-71
2022/01/05 00:15:50;;;;;;;11.75;1.98;;;;;;;;;;5016399;28;93167;-71
2022/01/05 00:18:17;;;;;;;4.68;1.50;;;;;;;;;;5017134;28;92324;-71
2022/01/05 00:20:43;;;;;;;10.45;1.80;;;;;;;;;;5016636;28;92873;-71
2022/01/05 00:23:10;;;;;;;8.07;1.70;;;;;;;;;;5016485;28;93562;-71
2022/01/05 00:25:36;;;;;;;16.50;1.77;;;;;;;;;;5016701;28;92288;-71
2022/01/05 00:28:02;;;;;;;6.32;1.75;;;;;;;;;;5016744;28;93556;-71
2022/01/05 00:30:29;;;;;;;7.50;2.00;;;;;;;;;;5019521;28;92968;-71
2022/01/05 00:32:55;;;;;;;10.23;2.08;;;;;;;;;;5016608;28;92834;-71
2022/01/05 00:35:22;;;;;;;9.35;2.10;;;;;;;;;;5014779;28;95578;-71
2022/01/05 00:37:48;;;;;;;6.47;1.75;;;;;;;;;;4999088;28;92140;-71
2022/01/05 00:40:14;;;;;;;8.45;2.00;;;;;;;;;;5016302;28;93303;-71
2022/01/05 00:42:41;;;;;;;7.00;2.20;;;;;;;;;;5015962;28;93799;-71
2022/01/05 00:45:07;;;;;;;11.77;1.80;;;;;;;;;;5018195;28;92383;-71
2022/01/05 00:47:33;;;;;;;8.63;2.13;;;;;;;;;;5019998;28;93339;-71
2022/01/05 00:50:00;;;;;;;9.55;1.67;;;;;;;;;;5019762;28;93957;-71
2022/01/05 00:52:26;;;;;;;9.27;1.83;;;;;;;;;;5023196;28;91604;-71
2022/01/05 00:54:52;;;;;;;4.57;1.85;;;;;;;;;;5019513;28;93689;-71
2022/01/05 00:57:19;;;;;;;6.88;2.10;;;;;;;;;;5019380;28;93025;-71
2022/01/05 00:59:45;;;;;;;13.40;2.63;;;;;;;;;;5018294;28;94706;-71
2022/01/05 01:02:11;;;;;;;6.85;1.75;;;;;;;;;;5019534;28;93879;-71
2022/01/05 01:04:38;;;;;;;7.68;1.70;;;;;;;;;;5019461;28;94398;-71
2022/01/05 01:07:04;;;;;;;14.50;2.60;;;;;;;;;;5019618;28;93415;-71
2022/01/05 01:09:31;;;;;;;12.63;2.03;;;;;;;;;;5019128;28;93482;-71
2022/01/05 01:11:58;;;;;;;12.60;2.15;;;;;;;;;;5019233;28;92353;-71
2022/01/05 01:14:24;;;;;;;11.57;2.22;;;;;;;;;;5022564;28;93350;-71
2022/01/05 01:16:50;;;;;;;10.95;2.03;;;;;;;;;;5019777;28;91713;-71
2022/01/05 01:19:17;;;;;;;11.20;2.70;;;;;;;;;;5019334;28;92659;-71
2022/01/05 01:21:43;;;;;;;12.88;2.00;;;;;;;;;;5018944;28;93835;-71
2022/01/05 01:24:09;;;;;;;9.30;2.00;;;;;;;;;;5017260;28;96200;-71
2022/01/05 01:26:36;;;;;;;8.98;2.22;;;;;;;;;;5018951;28;94598;-71
2022/01/05 01:29:02;;;;;;;11.38;2.45;;;;;;;;;;5019157;28;93593;-71
2022/01/05 01:31:29;;;;;;;9.57;2.50;;;;;;;;;;5019086;28;92480;-71
2022/01/05 01:33:55;;;;;;;13.95;2.88;;;;;;;;;;5019124;28;93237;-71
2022/01/05 01:36:22;;;;;;;11.73;2.70;;;;;;;;;;5022135;28;93620;-71
2022/01/05 01:38:48;;;;;;;9.43;2.22;;;;;;;;;;5018556;28;93275;-71
2022/01/05 01:41:14;;;;;;;10.30;2.13;;;;;;;;;;5019393;28;92997;-71
2022/01/05 01:43:41;;;;;;;8.93;2.92;;;;;;;;;;5018838;28;92315;-71
2022/01/05 01:46:10;;;;;;;14.60;2.63;;;;;;;;;;5018861;28;93461;-71
2022/01/05 01:48:37;;;;;;;9.40;2.30;;;;;;;;;;5016906;28;95846;-71
2022/01/05 01:51:03;;;;;;;10.70;2.03;;;;;;;;;;5018940;28;92253;-71
2022/01/05 01:53:29;;;;;;;12.05;2.25;;;;;;;;;;5018334;28;93301;-71
2022/01/05 01:55:57;;;;;;;11.00;2.35;;;;;;;;;;5017698;28;93526;-71
2022/01/05 01:58:25;;;;;;;13.00;2.30;;;;;;;;;;5021922;28;92496;-71
2022/01/05 02:00:52;;;;;;;12.77;3.00;;;;;;;;;;5018647;28;93777;-71
2022/01/05 02:03:18;;;;;;;15.60;2.92;;;;;;;;;;5021860;27;92325;-71
2022/01/05 02:05:44;;;;;;;13.98;2.40;;;;;;;;;;5039339;28;93895;-71
2022/01/05 02:08:11;;;;;;;14.80;2.42;;;;;;;;;;5038110;28;93232;-71
2022/01/05 02:10:37;;;;;;;11.25;2.30;;;;;;;;;;5038847;28;92208;-71
2022/01/05 02:13:04;;;;;;;12.65;2.47;;;;;;;;;;5037103;28;95296;-71
2022/01/05 02:15:30;;;;;;;11.52;2.45;;;;;;;;;;5038521;28;94044;-71
2022/01/05 02:18:10;;;;;;;12.85;2.42;;;;;;;;;;5041536;28;92399;-71
2022/01/05 02:20:37;;;;;;;10.25;2.78;;;;;;;;;;5037749;28;93567;-71
2022/01/05 02:23:03;;;;;;;12.93;2.42;;;;;;;;;;5038723;28;92179;-71
2022/01/05 02:25:30;;;;;;;22.90;2.78;;;;;;;;;;5038548;28;92503;-71
2022/01/05 02:27:56;;;;;;;10.60;2.30;;;;;;;;;;5038291;28;93380;-71
2022/01/05 02:30:27;;;;;;;9.38;2.35;;;;;;;;;;5039276;28;91930;-71
2022/01/05 02:32:54;;;;;;;15.57;2.65;;;;;;;;;;5020217;28;94255;-71
2022/01/05 02:35:21;;;;;;;8.57;2.53;;;;;;;;;;5038099;28;93695;-72
2022/01/05 02:37:50;;;;;;;15.45;2.78;;;;;;;;;;5036693;28;94717;-72
2022/01/05 02:40:17;;;;;;;11.38;2.53;;;;;;;;;;5041257;28;95195;-71
2022/01/05 02:42:44;;;;;;;10.05;2.05;;;;;;;;;;5038394;28;92257;-71
2022/01/05 02:45:11;;;;;;;7.00;3.35;;;;;;;;;;5038149;28;93371;-71
2022/01/05 02:47:38;;;;;;;12.65;2.30;;;;;;;;;;5037636;28;93295;-72
2022/01/05 02:50:05;;;;;;;6.95;1.58;;;;;;;;;;5038248;28;92292;-71
2022/01/05 02:52:32;;;;;;;8.65;2.13;;;;;;;;;;5038094;28;93380;-71
2022/01/05 02:54:58;;;;;;;10.52;2.28;;;;;;;;;;5038331;28;93374;-71
2022/01/05 02:57:24;;;;;;;12.48;2.25;;;;;;;;;;5037978;28;92136;-71
2022/01/05 02:59:52;;;;;;;15.23;2.55;;;;;;;;;;5038012;28;93784;-71
2022/01/05 03:02:18;;;;;;;13.98;2.47;;;;;;;;;;5038957;28;95693;-71
2022/01/05 03:04:45;;;;;;;8.90;2.13;;;;;;;;;;5037739;28;95780;-71
2022/01/05 03:07:13;;;;;;;9.88;1.80;;;;;;;;;;5037774;28;94091;-71
2022/01/05 03:09:39;;;;;;;13.07;2.28;;;;;;;;;;5037734;28;93384;-71
2022/01/05 03:12:06;;;;;;;18.30;2.42;;;;;;;;;;5020390;28;92911;-71
2022/01/05 03:14:33;;;;;;;14.90;2.50;;;;;;;;;;5037876;28;93034;-71
2022/01/05 03:16:59;;;;;;;14.85;2.13;;;;;;;;;;5036780;28;92662;-71
2022/01/05 03:19:25;;;;;;;9.43;2.40;;;;;;;;;;5038271;28;93486;-71
2022/01/05 03:21:51;;;;;;;7.53;2.25;;;;;;;;;;5019204;28;94969;-71
2022/01/05 03:24:18;;;;;;;10.80;2.30;;;;;;;;;;5040963;28;92351;-71
2022/01/05 03:26:44;;;;;;;16.85;2.28;;;;;;;;;;5035672;28;95163;-71
2022/01/05 03:29:10;;;;;;;9.73;2.33;;;;;;;;;;5037638;28;92265;-71
2022/01/05 03:31:37;;;;;;;9.98;2.75;;;;;;;;;;5037086;28;93558;-71
2022/01/05 03:34:05;;;;;;;13.45;2.63;;;;;;;;;;5037125;28;93494;-71
2022/01/05 03:36:32;;;;;;;10.82;2.30;;;;;;;;;;5037512;28;92242;-71
2022/01/05 03:38:58;;;;;;;15.23;2.53;;;;;;;;;;5037664;28;93527;-71
2022/01/05 03:41:24;;;;;;;15.85;2.78;;;;;;;;;;5037398;28;93979;-71
2022/01/05 03:43:51;;;;;;;12.68;2.88;;;;;;;;;;5036436;28;91599;-71
2022/01/05 03:46:17;;;;;;;14.73;2.42;;;;;;;;;;5037220;28;92735;-72
2022/01/05 03:48:44;;;;;;;13.57;2.60;;;;;;;;;;5035809;28;92410;-72
2022/01/05 03:51:10;;;;;;;14.45;2.90;;;;;;;;;;5032199;28;95646;-72
2022/01/05 03:53:36;;;;;;;15.40;3.08;;;;;;;;;;5034891;28;93216;-72
2022/01/05 03:56:03;;;;;;;16.10;2.92;;;;;;;;;;5035228;28;92500;-71
2022/01/05 03:58:29;;;;;;;18.00;3.25;;;;;;;;;;5036619;28;92731;-71
2022/01/05 04:00:57;;;;;;;16.95;2.85;;;;;;;;;;5036979;28;92228;-71
2022/01/05 04:03:23;;;;;;;11.13;2.70;;;;;;;;;;5036199;28;92610;-71
2022/01/05 04:05:50;;;;;;;10.85;2.53;;;;;;;;;;5037230;28;93483;-71
2022/01/05 04:08:16;;;;;;;10.38;2.10;;;;;;;;;;5040404;28;92569;-71
2022/01/05 04:10:43;;;;;;;10.32;2.92;;;;;;;;;;5036818;28;92830;-71
2022/01/05 04:13:09;;;;;;;16.05;2.88;;;;;;;;;;5037023;28;93514;-71
2022/01/05 04:15:36;;;;;;;17.20;2.65;;;;;;;;;;5035473;28;94763;-71
2022/01/05 04:18:02;;;;;;;15.20;2.97;;;;;;;;;;5036547;28;96155;-71
2022/01/05 04:20:28;;;;;;;13.48;2.55;;;;;;;;;;5039273;27;93217;-71
2022/01/05 04:22:55;;;;;;;11.15;3.08;;;;;;;;;;5040575;28;92427;-71
2022/01/05 04:25:21;;;;;;;22.63;2.88;;;;;;;;;;5040040;28;93211;-71
2022/01/05 04:27:47;;;;;;;15.25;2.95;;;;;;;;;;5043375;28;93200;-71
2022/01/05 04:30:14;;;;;;;18.50;3.33;;;;;;;;;;5040514;28;93610;-71
2022/01/05 04:32:40;;;;;;;17.20;3.58;;;;;;;;;;5039622;28;91866;-70
2022/01/05 04:35:27;;;;;;;15.80;2.78;;;;;;;;;;5039851;28;92390;-70
2022/01/05 04:37:54;;;;;;;19.48;3.25;;;;;;;;;;5040531;28;93340;-70
2022/01/05 04:40:21;;;;;;;13.38;2.67;;;;;;;;;;5041601;28;95824;-70
2022/01/05 04:42:47;;;;;;;19.48;3.25;;;;;;;;;;5047289;28;92229;-70
2022/01/05 04:45:13;;;;;;;13.50;2.95;;;;;;;;;;5045465;28;93441;-69
2022/01/05 04:47:40;;;;;;;17.83;3.17;;;;;;;;;;5043685;28;93422;-70
2022/01/05 04:50:07;;;;;;;12.95;2.42;;;;;;;;;;5045235;28;93351;-69
2022/01/05 04:52:34;;;;;;;15.77;2.85;;;;;;;;;;5039927;28;93205;-70
2022/01/05 04:55:01;;;;;;;15.27;2.90;;;;;;;;;;5040198;28;92404;-69
2022/01/05 04:57:27;;;;;;;14.70;3.00;;;;;;;;;;5040224;28;93560;-69
2022/01/05 04:59:53;;;;;;;21.98;3.47;;;;;;;;;;5039699;28;93755;-69
2022/01/05 05:02:20;;;;;;;22.40;2.72;;;;;;;;;;5039937;28;92339;-69
2022/01/05 05:04:50;;;;;;;17.42;3.45;;;;;;;;;;5038363;28;94722;-70
2022/01/05 05:07:16;;;;;;;20.30;4.38;;;;;;;;;;5039283;28;93407;-70
2022/01/05 05:09:42;;;;;;;20.88;3.25;;;;;;;;;;5039720;28;92546;-70
2022/01/05 05:12:09;;;;;;;18.05;2.92;;;;;;;;;;5042688;28;93436;-70
2022/01/05 05:14:36;;;;;;;21.27;3.20;;;;;;;;;;5039773;28;92432;-70
2022/01/05 05:17:03;;;;;;;14.00;3.25;;;;;;;;;;5039430;28;92858;-70
2022/01/05 05:19:31;;;;;;;15.30;3.20;;;;;;;;;;5039600;28;93201;-70
2022/01/05 05:21:58;;;;;;;13.52;2.70;;;;;;;;;;5039919;28;91556;-71
2022/01/05 05:24:24;;;;;;;16.52;3.08;;;;;;;;;;5039628;28;92243;-70
2022/01/05 05:26:50;;;;;;;8.95;2.40;;;;;;;;;;5039129;28;93386;-70
2022/01/05 05:29:17;;;;;;;15.75;3.50;;;;;;;;;;5037825;28;94680;-70
2022/01/05 05:31:43;;;;;;;10.05;2.50;;;;;;;;;;5038113;27;95844;-70
2022/01/05 05:34:10;;;;;;;25.73;3.65;;;;;;;;;;5042300;28;92522;-70
2022/01/05 05:36:36;;;;;;;16.70;3.30;;;;;;;;;;5039067;28;94012;-70
2022/01/05 05:39:02;;;;;;;14.23;3.58;;;;;;;;;;5039310;28;93742;-69
2022/01/05 05:41:29;;;;;;;20.42;3.65;;;;;;;;;;5039138;28;93582;-70
2022/01/05 05:43:55;;;;;;;18.55;3.15;;;;;;;;;;5039253;28;93461;-70
2022/01/05 05:46:21;;;;;;;23.55;3.88;;;;;;;;;;5039169;28;92762;-70
2022/01/05 05:48:48;;;;;;;20.15;3.72;;;;;;;;;;5038919;28;92235;-71
2022/01/05 05:51:14;;;;;;;18.95;3.42;;;;;;;;;;5021342;28;92851;-70
2022/01/05 05:53:41;;;;;;;15.13;3.17;;;;;;;;;;5037059;28;95467;-70
2022/01/05 05:56:07;;;;;;;14.60;2.90;;;;;;;;;;5042227;28;92338;-70
2022/01/05 05:58:33;;;;;;;9.55;3.10;;;;;;;;;;5038691;28;93915;-70
2022/01/05 06:01:00;;;;;;;13.90;3.00;;;;;;;;;;5038926;28;92316;-70
2022/01/05 06:03:26;;;;;;;14.38;3.10;;;;;;;;;;5038601;28;93098;-71
2022/01/05 06:05:53;;;;;;;17.30;3.72;;;;;;;;;;5038618;28;93587;-70
2022/01/05 06:08:19;;;;;;;12.27;2.72;;;;;;;;;;5038747;28;92251;-70
2022/01/05 06:10:45;;;;;;;14.07;3.63;;;;;;;;;;5039304;28;92457;-70
2022/01/05 06:13:12;;;;;;;19.45;2.88;;;;;;;;;;5038580;28;94106;-70
2022/01/05 06:15:38;;;;;;;15.98;3.15;;;;;;;;;;5038672;28;92345;-70
2022/01/05 06:18:04;;;;;;;21.55;3.05;;;;;;;;;;5039167;28;94777;-71
2022/01/05 06:20:31;;;;;;;17.90;3.10;;;;;;;;;;5034424;28;92314;-70
2022/01/05 06:22:57;;;;;;;17.52;3.63;;;;;;;;;;5038787;28;93363;-70
2022/01/05 06:25:23;;;;;;;19.52;3.47;;;;;;;;;;5038346;28;93720;-70
2022/01/05 06:27:50;;;;;;;19.02;4.03;;;;;;;;;;5038463;28;92398;-70
2022/01/05 06:30:21;;;;;;;18.45;3.70;;;;;;;;;;5038490;28;93726;-70
2022/01/05 06:32:48;;;;;;;15.73;3.58;;;;;;;;;;5037702;28;93528;-70
2022/01/05 06:35:15;;;;;;;16.60;3.13;;;;;;;;;;5038897;28;91605;-70
2022/01/05 06:37:42;;;;;;;13.80;2.88;;;;;;;;;;5041348;28;92539;-70
2022/01/05 06:40:09;;;;;;;13.77;3.65;;;;;;;;;;5038534;28;92346;-70
2022/01/05 06:42:35;;;;;;;14.73;3.50;;;;;;;;;;5018289;28;94964;-70
2022/01/05 06:45:02;;;;;;;21.35;3.70;;;;;;;;;;5038152;28;92666;-70
2022/01/05 06:47:29;;;;;;;14.90;3.65;;;;;;;;;;5037426;28;92324;-70
2022/01/05 06:49:55;;;;;;;27.50;3.90;;;;;;;;;;5038241;28;92904;-70
2022/01/05 06:52:26;;;;;;;18.25;3.28;;;;;;;;;;5037863;28;93581;-70
2022/01/05 06:54:52;;;;;;;18.58;4.18;;;;;;;;;;5038252;28;92324;-70
2022/01/05 06:57:19;;;;;;;18.45;3.35;;;;;;;;;;5037916;28;93259;-70
2022/01/05 06:59:45;;;;;;;17.38;3.03;;;;;;;;;;5040928;28;92898;-70
2022/01/05 07:02:11;;;;;;;18.30;3.50;;;;;;;;;;5037795;28;92710;-70
2022/01/05 07:04:38;;;;;;;20.33;3.85;;;;;;;;;;5037780;28;93718;-70
2022/01/05 07:07:05;;;;;;;16.83;3.47;;;;;;;;;;5036047;28;94743;-70
2022/01/05 07:09:31;;;;;;;20.63;3.95;;;;;;;;;;5037512;28;96020;-70
2022/01/05 07:11:58;;;;;;;20.55;2.83;;;;;;;;;;5037516;28;93543;-70
2022/01/05 07:14:26;;;;;;;18.08;3.35;;;;;;;;;;5037188;28;92381;-70
2022/01/05 07:16:52;;;;;;;19.08;4.13;;;;;;;;;;5037039;28;92501;-71
2022/01/05 07:19:20;;;;;;;18.80;3.95;;;;;;;;;;5037578;28;93728;-70
2022/01/05 07:21:46;;;;;;;20.48;3.53;;;;;;;;;;5040871;28;92515;-70
2022/01/05 07:24:17;;;;;;;23.88;3.78;;;;;;;;;;5037669;28;94123;-70
2022/01/05 07:26:44;;;;;;;22.33;4.00;;;;;;;;;;5037420;28;92410;-70
2022/01/05 07:29:14;;;;;;;20.02;3.53;;;;;;;;;;5037065;28;92713;-70
2022/01/05 07:31:41;;;;;;;19.48;3.70;;;;;;;;;;5035441;28;96217;-70
2022/01/05 07:34:08;;;;;;;21.58;3.22;;;;;;;;;;5037358;28;92371;-70
2022/01/05 07:36:34;;;;;;;27.13;4.32;;;;;;;;;;5019785;28;93264;-71
2022/01/05 07:39:03;;;;;;;18.55;3.55;;;;;;;;;;5037165;28;93646;-71
2022/01/05 07:41:29;;;;;;;25.48;3.88;;;;;;;;;;5018791;28;92437;-71
2022/01/05 07:43:56;;;;;;;18.58;3.13;;;;;;;;;;5040692;28;93923;-71
2022/01/05 07:46:22;;;;;;;21.75;4.07;;;;;;;;;;5037116;28;92231;-71
2022/01/05 07:48:48;;;;;;;22.50;3.95;;;;;;;;;;5037525;28;93248;-70
2022/01/05 07:51:15;;;;;;;31.45;3.50;;;;;;;;;;5037072;28;93846;-67
2022/01/05 07:53:42;;;;;;;20.65;3.10;;;;;;;;;;5036460;28;92418;-69
2022/01/05 07:56:08;;;;;;;25.90;5.15;;;;;;;;;;5034945;28;94760;-70
2022/01/05 07:58:35;;;;;;;17.55;3.03;;;;;;;;;;5037001;28;93534;-69
2022/01/05 08:01:03;;;;;;;17.08;3.63;;;;;;;;;;5037199;28;92344;-70
2022/01/05 08:03:33;;;;;;;18.00;3.58;;;;;;;;;;5036985;28;93553;-70
2022/01/05 08:06:18;;;;;;;25.05;3.83;;;;;;;;;;5039805;28;93654;-70
2022/01/05 08:08:45;;;;;;;14.20;2.95;;;;;;;;;;5036791;28;92785;-69
2022/01/05 08:11:12;;;;;;;28.50;3.55;;;;;;;;;;5036579;28;93636;-70
2022/01/05 08:13:38;;;;;;;18.27;3.20;;;;;;;;;;5037163;28;91556;-70
2022/01/05 08:16:05;;;;;;;15.48;3.22;;;;;;;;;;5018908;28;92635;-70
2022/01/05 08:18:32;;;;;;;25.45;3.67;;;;;;;;;;5036654;28;93068;-69
2022/01/05 08:20:58;;;;;;;23.17;3.17;;;;;;;;;;5035258;28;94732;-70
2022/01/05 08:23:24;;;;;;;21.70;3.10;;;;;;;;;;5036312;28;96036;-70
2022/01/05 08:25:51;;;;;;;17.75;2.90;;;;;;;;;;5036446;28;93465;-69
2022/01/05 08:28:18;;;;;;;30.05;4.40;;;;;;;;;;5039547;28;92363;-70
2022/01/05 08:30:45;;;;;;;15.43;3.38;;;;;;;;;;5036497;28;93563;-70
2022/01/05 08:33:15;;;;;;;12.40;2.90;;;;;;;;;;5036796;28;92318;-70
2022/01/05 08:35:42;;;;;;;15.20;3.17;;;;;;;;;;5036526;28;92967;-70
2022/01/05 08:38:08;;;;;;;15.73;3.03;;;;;;;;;;5037033;28;92381;-70
2022/01/05 08:40:36;;;;;;;16.05;2.88;;;;;;;;;;5036887;28;92509;-69
2022/01/05 08:43:03;;;;;;;12.30;3.35;;;;;;;;;;5036634;28;93458;-69
2022/01/05 08:45:29;;;;;;;25.83;3.38;;;;;;;;;;5034503;28;95867;-70
2022/01/05 08:47:56;;;;;;;21.23;3.33;;;;;;;;;;5039372;28;92316;-71
2022/01/05 08:50:24;;;;;;;10.63;3.25;;;;;;;;;;5036052;28;93530;-70
2022/01/05 08:52:51;;;;;;;17.08;1.77;;;;;;;;;;5036332;28;92273;-70
2022/01/05 08:55:19;;;;;;;24.17;3.70;;;;;;;;;;5037986;28;93438;-70
2022/01/05 08:57:45;;;;;;;19.25;3.38;;;;;;;;;;5040181;28;93388;-71
2022/01/05 09:00:12;;;;;;;27.98;6.25;;;;;;;;;;5040065;28;92363;-71
2022/01/05 09:02:39;;;;;;;23.88;4.20;;;;;;;;;;5039874;28;93600;-71
2022/01/05 09:05:06;;;;;;;19.40;3.95;;;;;;;;;;5037020;27;93276;-70
2022/01/05 09:07:32;;;;;;;16.58;3.72;;;;;;;;;;5043973;28;92254;-70
2022/01/05 09:09:59;;;;;;;24.00;4.60;;;;;;;;;;5043069;28;94599;-70
2022/01/05 09:12:25;;;;;;;24.33;4.30;;;;;;;;;;5040799;28;92345;-70
2022/01/05 09:14:52;;;;;;;18.38;3.35;;;;;;;;;;5047164;27;93693;-71
2022/01/05 09:17:21;;;;;;;21.40;3.95;;;;;;;;;;5059460;27;92926;-70
2022/01/05 09:19:47;;;;;;;23.83;4.03;;;;;;;;;;5059610;27;92356;-70
2022/01/05 09:22:13;;;;;;;31.73;4.28;;;;;;;;;;5059954;27;93328;-71
2022/01/05 09:24:48;;;;;;;20.70;4.03;;;;;;;;;;5059743;27;93229;-71
2022/01/05 09:27:16;;;;;;;23.60;3.90;;;;;;;;;;5060128;27;91591;-71
2022/01/05 09:29:43;;;;;;;16.48;3.25;;;;;;;;;;5059628;27;92684;-70
2022/01/05 09:32:09;;;;;;;24.00;4.43;;;;;;;;;;5062137;27;93546;-70
2022/01/05 09:34:37;;;;;;;11.90;3.47;;;;;;;;;;5057742;27;94551;-71
2022/01/05 09:37:21;;;;;;;28.02;4.03;;;;;;;;;;5059464;27;93657;-71
2022/01/05 09:42:32;;;;;;;20.42;4.45;;;;;;;;;;5059079;27;93451;-71
2022/01/05 09:44:59;;;;;;;37.60;5.15;;;;;;;;;;5059068;27;93782;-70
2022/01/05 09:47:34;;;;;;;34.55;4.80;;;;;;;;;;5059303;27;92393;-70
2022/01/05 09:50:03;;;;;;;28.88;5.68;;;;;;;;;;5059449;27;93369;-70
2022/01/05 09:52:30;;;;;;;34.05;5.57;;;;;;;;;;5059810;27;92836;-70
2022/01/05 09:54:57;;;;;;;31.88;4.65;;;;;;;;;;5062186;27;92463;-70
2022/01/05 09:57:24;;;;;;;34.97;6.10;;;;;;;;;;5059153;27;93420;-69
2022/01/05 09:59:51;;;;;;;29.55;4.63;;;;;;;;;;5057595;27;94769;-69
2022/01/05 10:02:18;;;;;;;40.90;5.47;;;;;;;;;;5059170;27;95811;-70
2022/01/05 10:04:45;;;;;;;27.55;4.38;;;;;;;;;;5058865;27;93903;-70
2022/01/05 10:07:13;;;;;;;32.83;5.43;;;;;;;;;;5041410;27;92312;-70
2022/01/05 10:09:40;;;;;;;34.22;6.55;;;;;;;;;;5058891;27;92701;-69
2022/01/05 10:12:08;;;;;;;45.58;5.55;;;;;;;;;;5040781;27;94679;-70
2022/01/05 10:14:37;;;;;;;28.77;4.57;;;;;;;;;;5058894;27;92395;-70
2022/01/05 10:17:10;;;;;;;36.33;4.88;;;;;;;;;;5061336;27;92819;-70
2022/01/05 10:19:37;;;;;;;29.05;3.47;;;;;;;;;;5058787;27;93217;-69
2022/01/05 10:22:24;;;;;;;21.85;4.32;;;;;;;;;;5058535;27;93363;-69
2022/01/05 10:24:50;;;;;;;33.45;4.78;;;;;;;;;;5056813;27;95534;-69
2022/01/05 10:27:18;;;;;;;26.63;3.65;;;;;;;;;;5058620;27;92238;-71
2022/01/05 10:29:52;;;;;;;30.00;4.18;;;;;;;;;;5058791;27;93843;-70
2022/01/05 10:32:18;;;;;;;26.23;4.07;;;;;;;;;;5058288;27;93705;-70
2022/01/05 10:34:57;;;;;;;23.13;3.58;;;;;;;;;;5058094;27;92229;-70
2022/01/05 10:37:24;;;;;;;31.45;4.30;;;;;;;;;;5061635;27;93400;-70
2022/01/05 10:40:02;;;;;;;30.50;3.75;;;;;;;;;;5058493;27;92324;-70
2022/01/05 10:42:30;;;;;;;29.30;3.97;;;;;;;;;;5058984;27;93853;-70
2022/01/05 10:44:56;;;;;;;20.98;3.55;;;;;;;;;;5058208;27;93761;-70
2022/01/05 10:47:22;;;;;;;21.98;3.53;;;;;;;;;;5057656;27;92274;-70
2022/01/05 10:49:49;;;;;;;21.30;4.07;;;;;;;;;;5057064;27;94688;-70
2022/01/05 10:52:28;;;;;;;25.13;3.72;;;;;;;;;;5040008;27;93386;-69
2022/01/05 10:54:59;;;;;;;27.83;3.42;;;;;;;;;;5058282;27;92329;-70
2022/01/05 10:57:26;;;;;;;24.05;4.30;;;;;;;;;;5058525;27;93380;-69
2022/01/05 10:59:55;;;;;;;27.98;4.60;;;;;;;;;;5060890;27;93644;-71
2022/01/05 11:02:29;;;;;;;30.05;5.95;;;;;;;;;;5040572;27;93053;-69
2022/01/05 11:04:58;;;;;;;19.27;3.40;;;;;;;;;;5058030;27;93784;-70
2022/01/05 11:07:26;;;;;;;26.38;4.72;;;;;;;;;;5058643;27;91618;-70
2022/01/05 11:09:58;;;;;;;38.88;5.05;;;;;;;;;;5058019;27;92384;-70
2022/01/05 11:12:32;;;;;;;33.78;4.85;;;;;;;;;;5057136;27;93397;-70
2022/01/05 11:15:17;;;;;;;38.75;4.68;;;;;;;;;;5051509;27;95392;-70
2022/01/05 11:18:02;;;;;;;28.48;4.05;;;;;;;;;;5037283;28;95828;-71
2022/01/05 11:20:28;;;;;;;22.83;4.93;;;;;;;;;;5036795;28;94126;-69
2022/01/05 11:22:55;;;;;;;38.08;4.93;;;;;;;;;;5040401;28;92879;-70
2022/01/05 11:25:22;;;;;;;27.13;2.88;;;;;;;;;;5037356;28;93571;-69
2022/01/05 11:27:49;;;;;;;21.40;3.15;;;;;;;;;;5037314;28;92306;-69
2022/01/05 11:30:17;;;;;;;21.05;4.38;;;;;;;;;;5037713;28;92714;-69
2022/01/05 11:32:44;;;;;;;31.10;4.10;;;;;;;;;;5038048;28;92419;-69
2022/01/05 11:35:10;;;;;;;27.73;3.53;;;;;;;;;;5037174;28;93372;-70
2022/01/05 11:37:36;;;;;;;17.98;3.45;;;;;;;;;;5037444;28;93341;-70
2022/01/05 11:40:04;;;;;;;24.23;4.38;;;;;;;;;;5035638;28;96333;-70
2022/01/05 11:42:32;;;;;;;21.38;3.45;;;;;;;;;;5037185;28;92358;-69
2022/01/05 11:44:59;;;;;;;20.75;3.72;;;;;;;;;;5039968;28;93482;-70
2022/01/05 11:47:29;;;;;;;18.80;3.72;;;;;;;;;;5037166;28;92221;-70
2022/01/05 11:50:15;;;;;;;26.23;3.78;;;;;;;;;;5019227;28;94429;-70
2022/01/05 11:53:01;;;;;;;26.25;3.60;;;;;;;;;;5036477;28;94834;-70
2022/01/05 11:55:28;;;;;;;23.73;3.97;;;;;;;;;;5024609;28;93329;-70
2022/01/05 11:58:12;;;;;;;20.67;3.78;;;;;;;;;;5019558;28;93459;-70
2022/01/05 12:00:39;;;;;;;24.73;3.28;;;;;;;;;;5016813;28;92833;-69
2022/01/05 12:03:05;;;;;;;23.75;2.90;;;;;;;;;;5017085;28;92173;-69
2022/01/05 12:05:51;;;;;;;24.60;3.72;;;;;;;;;;5015142;28;95546;-69
2022/01/05 12:08:36;;;;;;;22.83;3.28;;;;;;;;;;5001938;28;93972;-70
2022/01/05 12:11:02;;;;;;;36.45;4.03;;;;;;;;;;5016631;28;93405;-70
2022/01/05 12:13:35;;;;;;;19.60;3.60;;;;;;;;;;4999131;28;93079;-69
2022/01/05 12:16:02;;;;;;;26.85;3.97;;;;;;;;;;5016722;28;92352;-69
2022/01/05 12:18:30;;;;;;;22.42;3.42;;;;;;;;;;5016495;28;94246;-70
2022/01/05 12:20:57;;;;;;;25.13;3.47;;;;;;;;;;5016592;28;93421;-70
2022/01/05 12:23:25;;;;;;;17.17;3.50;;;;;;;;;;4999403;28;92186;-70
2022/01/05 12:26:08;;;;;;;22.95;3.33;;;;;;;;;;5016684;28;92273;-69
2022/01/05 12:28:36;;;;;;;;;;;;;;;;;;5016899;28;93122;-70
2022/01/05 12:31:09;;;;;;;21.00;4.00;;;;;;;;;;5000037;28;117037;-70
2022/01/05 12:33:48;;;;;;;27.70;4.47;;;;;;;;;;5016013;28;93632;-68
2022/01/05 12:36:44;;;;;;;25.67;4.35;;;;;;;;;;5016498;28;92171;-70
2022/01/05 12:39:10;;;;;;;18.02;2.83;;;;;;;;;;4999116;28;93554;-69
2022/01/05 12:41:36;;;;;;;26.75;3.40;;;;;;;;;;5018844;28;93183;-70
2022/01/05 12:44:12;;;;;;;25.02;4.00;;;;;;;;;;5019673;28;92309;-70
2022/01/05 12:46:45;;;;;;;33.38;4.93;;;;;;;;;;5019569;28;93928;-70
2022/01/05 12:49:17;;;;;;;30.95;4.82;;;;;;;;;;5020053;28;92968;-70
2022/01/05 12:51:47;;;;;;;23.40;3.97;;;;;;;;;;5022978;28;92245;-70
2022/01/05 12:54:18;;;;;;;26.58;3.70;;;;;;;;;;5002323;28;93626;-70
2022/01/05 12:56:50;;;;;;;34.60;3.88;;;;;;;;;;5003592;28;94704;-70
2022/01/05 12:59:18;;;;;;;26.70;3.75;;;;;;;;;;5025780;28;95696;-71
2022/01/05 13:01:44;;;;;;;19.15;3.33;;;;;;;;;;5023697;28;93257;-70
2022/01/05 13:04:13;;;;;;;22.15;3.30;;;;;;;;;;5023925;28;92079;-70
2022/01/05 13:06:41;;;;;;;17.65;3.78;;;;;;;;;;5021144;28;92455;-70
2022/01/05 13:09:08;;;;;;;19.35;3.05;;;;;;;;;;5021164;28;92636;-70
2022/01/05 13:11:40;;;;;;;23.83;2.97;;;;;;;;;;5020319;28;92344;-70
2022/01/05 13:14:14;;;;;;;18.35;3.03;;;;;;;;;;5023209;28;93675;-69
2022/01/05 13:16:45;;;;;;;24.92;2.90;;;;;;;;;;5019112;28;92399;-70
2022/01/05 13:19:43;;;;;;;24.05;3.15;;;;;;;;;;5019566;28;92894;-70
2022/01/05 13:22:16;;;;;;;20.63;4.00;;;;;;;;;;5002011;28;96069;-71
2022/01/05 13:24:48;;;;;;;30.92;3.55;;;;;;;;;;5019274;28;92308;-70
2022/01/05 13:27:16;;;;;;;30.45;3.83;;;;;;;;;;5019426;28;93495;-70
2022/01/05 13:29:43;;;;;;;22.20;3.47;;;;;;;;;;5019228;28;93919;-70
2022/01/05 13:32:12;;;;;;;26.73;3.47;;;;;;;;;;5018938;28;92362;-70
2022/01/05 13:34:40;;;;;;;26.85;3.35;;;;;;;;;;5019248;28;93982;-71
2022/01/05 13:37:08;;;;;;;26.10;3.30;;;;;;;;;;5022153;28;93626;-70
2022/01/05 13:39:35;;;;;;;22.17;2.83;;;;;;;;;;5019606;28;92511;-70
2022/01/05 13:42:02;;;;;;;23.50;4.03;;;;;;;;;;5013392;27;96612;-71
2022/01/05 13:44:28;;;;;;;22.65;3.50;;;;;;;;;;5059110;27;92419;-72
2022/01/05 13:46:55;;;;;;;18.35;3.60;;;;;;;;;;5057512;27;94673;-70
2022/01/05 13:49:22;;;;;;;17.75;2.92;;;;;;;;;;5059265;27;93803;-71
2022/01/05 13:52:01;;;;;;;24.52;3.53;;;;;;;;;;5058104;27;92450;-72
2022/01/05 13:54:28;;;;;;;19.75;3.30;;;;;;;;;;5059175;27;94723;-70
2022/01/05 13:56:54;;;;;;;16.67;2.95;;;;;;;;;;5059004;27;93437;-70
2022/01/05 13:59:21;;;;;;;15.90;3.85;;;;;;;;;;5062252;27;92356;-69
2022/01/05 14:01:58;;;;;;;15.32;2.97;;;;;;;;;;5059060;27;94139;-70
2022/01/05 14:04:24;;;;;;;17.65;2.88;;;;;;;;;;5059836;27;91654;-71
2022/01/05 14:06:58;;;;;;;25.70;3.63;;;;;;;;;;5059156;27;92397;-70
2022/01/05 14:09:28;;;;;;;25.92;3.17;;;;;;;;;;5058664;27;92693;-69
2022/01/05 14:11:57;;;;;;;25.98;4.03;;;;;;;;;;5057048;27;94753;-69
2022/01/05 14:14:24;;;;;;;33.08;7.22;;;;;;;;;;5058812;27;95213;-71
2022/01/05 14:16:51;;;;;;;28.27;5.95;;;;;;;;;;5040561;27;93018;-72
2022/01/05 14:19:27;;;;;;;24.52;4.90;;;;;;;;;;5058964;27;92553;-71
2022/01/05 14:22:02;;;;;;;19.42;3.72;;;;;;;;;;5061785;27;92856;-71
2022/01/05 14:24:33;;;;;;;16.05;3.42;;;;;;;;;;5058594;27;92292;-71
2022/01/05 14:27:00;;;;;;;27.13;4.40;;;;;;;;;;5058452;27;92723;-71
2022/01/05 14:29:27;;;;;;;27.10;4.28;;;;;;;;;;5058879;27;92886;-71
2022/01/05 14:32:01;;;;;;;19.52;3.25;;;;;;;;;;5058416;27;92206;-71
2022/01/05 14:34:27;;;;;;;26.63;5.05;;;;;;;;;;5058731;27;93676;-72
2022/01/05 14:37:06;;;;;;;30.23;5.18;;;;;;;;;;5056561;27;96068;-71
2022/01/05 14:39:37;;;;;;;23.17;5.53;;;;;;;;;;5058331;27;92388;-72